Terminal Aerodrome Forecast
Issued by NWS

Home | Current Version | Previous Version | Text Only | Print | Product List | Glossary On
Versions: 1 2 3 4 5 6 7 8 9 10 11 12 13 14 15 16 17 18 19 20 21 22 23 24 25
562
FTUS43 KSGF 211120
TAFJLN
TAF
KJLN 211120Z 2112/2212 18016G24KT P6SM BKN090 WS020/19040KT
     FM211400 18018G25KT P6SM BKN025
     FM211800 19018G26KT P6SM BKN040
     FM220200 18016G24KT P6SM -TSRA BKN070CB WS020/17040KT
     FM220700 28015G23KT 4SM SHRA OVC015
     FM221000 34008G16KT P6SM OVC045=

USA.gov is the U.S. government's official web portal to all federal, state and local government web resources and services.